sensor_id;sensor_type;location;lat;lon;timestamp;P1;durP1;ratioP1;P2;durP2;ratioP2
45338;SDS011;31071;51.478;5.710;2024-01-30T14:34:48;4.40;;;1.00;;
45338;SDS011;31071;51.478;5.710;2024-01-30T14:37:17;2.47;;;0.85;;
45338;SDS011;31071;51.478;5.710;2024-01-30T14:39:45;5.38;;;1.17;;
45338;SDS011;31071;51.478;5.710;2024-01-30T14:42:14;5.70;;;0.98;;
45338;SDS011;31071;51.478;5.710;2024-01-30T14:44:40;3.70;;;1.05;;
45338;SDS011;31071;51.478;5.710;2024-01-30T14:47:19;6.25;;;1.15;;
45338;SDS011;31071;51.478;5.710;2024-01-30T14:49:46;1.92;;;0.80;;
45338;SDS011;31071;51.478;5.710;2024-01-30T14:52:15;7.22;;;1.10;;
45338;SDS011;31071;51.478;5.710;2024-01-30T14:55:24;4.63;;;0.93;;
45338;SDS011;31071;51.478;5.710;2024-01-30T14:57:51;5.85;;;0.90;;
45338;SDS011;31071;51.478;5.710;2024-01-30T15:00:17;2.60;;;0.93;;
45338;SDS011;31071;51.478;5.710;2024-01-30T15:02:47;3.60;;;0.85;;
45338;SDS011;31071;51.478;5.710;2024-01-30T15:05:14;9.35;;;1.27;;
45338;SDS011;31071;51.478;5.710;2024-01-30T15:07:48;4.07;;;1.40;;
45338;SDS011;31071;51.478;5.710;2024-01-30T15:10:14;7.78;;;4.50;;
45338;SDS011;31071;51.478;5.710;2024-01-30T15:12:41;8.48;;;3.13;;
45338;SDS011;31071;51.478;5.710;2024-01-30T15:15:13;6.78;;;3.40;;
45338;SDS011;31071;51.478;5.710;2024-01-30T15:17:51;6.35;;;3.38;;
45338;SDS011;31071;51.478;5.710;2024-01-30T15:20:17;10.18;;;5.45;;
45338;SDS011;31071;51.478;5.710;2024-01-30T15:22:44;8.25;;;3.70;;
45338;SDS011;31071;51.478;5.710;2024-01-30T15:27:56;11.30;;;6.53;;
45338;SDS011;31071;51.478;5.710;2024-01-30T15:30:35;14.18;;;7.53;;
45338;SDS011;31071;51.478;5.710;2024-01-30T15:33:14;10.55;;;8.10;;
45338;SDS011;31071;51.478;5.710;2024-01-30T15:35:40;15.75;;;8.15;;
45338;SDS011;31071;51.478;5.710;2024-01-30T15:38:06;16.38;;;8.15;;
45338;SDS011;31071;51.478;5.710;2024-01-30T15:40:34;13.57;;;8.30;;
45338;SDS011;31071;51.478;5.710;2024-01-30T15:43:00;13.50;;;8.10;;
45338;SDS011;31071;51.478;5.710;2024-01-30T15:45:26;12.43;;;7.10;;
45338;SDS011;31071;51.478;5.710;2024-01-30T15:47:52;12.57;;;7.20;;
45338;SDS011;31071;51.478;5.710;2024-01-30T15:50:19;12.45;;;6.43;;
45338;SDS011;31071;51.478;5.710;2024-01-30T15:52:49;9.35;;;5.90;;
45338;SDS011;31071;51.478;5.710;2024-01-30T15:55:42;13.63;;;6.63;;
45338;SDS011;31071;51.478;5.710;2024-01-30T15:58:19;13.45;;;6.85;;
45338;SDS011;31071;51.478;5.710;2024-01-30T16:00:45;13.38;;;8.07;;
45338;SDS011;31071;51.478;5.710;2024-01-30T16:03:11;17.38;;;9.52;;
45338;SDS011;31071;51.478;5.710;2024-01-30T16:05:40;14.13;;;8.50;;
45338;SDS011;31071;51.478;5.710;2024-01-30T16:08:10;16.20;;;9.07;;
45338;SDS011;31071;51.478;5.710;2024-01-30T16:10:39;14.73;;;9.23;;
45338;SDS011;31071;51.478;5.710;2024-01-30T16:13:05;27.00;;;13.75;;
45338;SDS011;31071;51.478;5.710;2024-01-30T16:15:31;14.50;;;8.45;;
45338;SDS011;31071;51.478;5.710;2024-01-30T17:02:36;13.30;;;9.07;;
45338;SDS011;31071;51.478;5.710;2024-01-30T17:05:02;15.75;;;10.13;;
45338;SDS011;31071;51.478;5.710;2024-01-30T17:07:28;14.77;;;10.02;;
45338;SDS011;31071;51.478;5.710;2024-01-30T17:10:00;18.88;;;10.05;;
45338;SDS011;31071;51.478;5.710;2024-01-30T17:12:26;15.90;;;9.77;;
45338;SDS011;31071;51.478;5.710;2024-01-30T17:14:51;14.88;;;10.77;;
45338;SDS011;31071;51.478;5.710;2024-01-30T17:17:26;16.23;;;10.88;;
45338;SDS011;31071;51.478;5.710;2024-01-30T17:19:52;16.58;;;11.23;;
45338;SDS011;31071;51.478;5.710;2024-01-30T17:22:18;16.30;;;11.40;;
45338;SDS011;31071;51.478;5.710;2024-01-30T17:24:45;20.17;;;10.98;;
45338;SDS011;31071;51.478;5.710;2024-01-30T17:27:12;14.20;;;10.15;;
45338;SDS011;31071;51.478;5.710;2024-01-30T17:29:39;13.93;;;9.18;;
45338;SDS011;31071;51.478;5.710;2024-01-30T17:32:08;13.65;;;9.77;;
45338;SDS011;31071;51.478;5.710;2024-01-30T17:34:37;15.40;;;9.18;;
45338;SDS011;31071;51.478;5.710;2024-01-30T17:37:03;13.60;;;8.75;;
45338;SDS011;31071;51.478;5.710;2024-01-30T17:39:29;13.95;;;8.55;;
45338;SDS011;31071;51.478;5.710;2024-01-30T17:41:54;13.68;;;8.85;;
45338;SDS011;31071;51.478;5.710;2024-01-30T17:44:23;11.90;;;8.73;;
45338;SDS011;31071;51.478;5.710;2024-01-30T17:46:50;13.90;;;7.85;;
45338;SDS011;31071;51.478;5.710;2024-01-30T17:49:17;13.10;;;8.82;;
45338;SDS011;31071;51.478;5.710;2024-01-30T17:51:46;13.27;;;8.98;;
45338;SDS011;31071;51.478;5.710;2024-01-30T17:54:12;13.75;;;8.85;;
45338;SDS011;31071;51.478;5.710;2024-01-30T17:56:38;12.73;;;9.15;;
45338;SDS011;31071;51.478;5.710;2024-01-30T17:59:06;16.92;;;9.48;;
45338;SDS011;31071;51.478;5.710;2024-01-30T18:01:33;18.02;;;9.70;;
45338;SDS011;31071;51.478;5.710;2024-01-30T18:03:59;17.65;;;11.30;;
45338;SDS011;31071;51.478;5.710;2024-01-30T18:06:26;18.00;;;10.65;;
45338;SDS011;31071;51.478;5.710;2024-01-30T18:08:52;16.90;;;10.60;;
45338;SDS011;31071;51.478;5.710;2024-01-30T18:11:18;19.10;;;11.98;;
45338;SDS011;31071;51.478;5.710;2024-01-30T18:13:44;19.98;;;12.13;;
45338;SDS011;31071;51.478;5.710;2024-01-30T18:16:10;23.00;;;11.88;;
45338;SDS011;31071;51.478;5.710;2024-01-30T18:18:36;20.88;;;12.55;;
45338;SDS011;31071;51.478;5.710;2024-01-30T18:21:02;23.95;;;14.05;;
45338;SDS011;31071;51.478;5.710;2024-01-30T18:23:28;23.63;;;14.07;;
45338;SDS011;31071;51.478;5.710;2024-01-30T18:25:54;22.77;;;13.20;;
45338;SDS011;31071;51.478;5.710;2024-01-30T18:28:29;23.50;;;13.18;;
45338;SDS011;31071;51.478;5.710;2024-01-30T18:30:58;28.02;;;13.40;;
45338;SDS011;31071;51.478;5.710;2024-01-30T18:33:24;23.67;;;13.52;;
45338;SDS011;31071;51.478;5.710;2024-01-30T18:35:52;21.13;;;13.05;;
45338;SDS011;31071;51.478;5.710;2024-01-30T18:38:18;20.85;;;13.15;;
45338;SDS011;31071;51.478;5.710;2024-01-30T18:40:44;22.77;;;13.10;;
45338;SDS011;31071;51.478;5.710;2024-01-30T18:43:19;19.33;;;12.40;;
45338;SDS011;31071;51.478;5.710;2024-01-30T18:45:51;22.73;;;12.98;;
45338;SDS011;31071;51.478;5.710;2024-01-30T18:48:21;23.02;;;12.93;;
45338;SDS011;31071;51.478;5.710;2024-01-30T18:50:54;23.13;;;12.07;;
45338;SDS011;31071;51.478;5.710;2024-01-30T18:53:21;22.85;;;13.60;;
45338;SDS011;31071;51.478;5.710;2024-01-30T18:55:58;24.80;;;13.55;;
45338;SDS011;31071;51.478;5.710;2024-01-30T18:58:30;28.13;;;14.60;;
45338;SDS011;31071;51.478;5.710;2024-01-30T19:00:56;26.23;;;13.88;;
45338;SDS011;31071;51.478;5.710;2024-01-30T19:03:26;30.52;;;14.85;;
45338;SDS011;31071;51.478;5.710;2024-01-30T19:06:10;29.02;;;14.85;;
45338;SDS011;31071;51.478;5.710;2024-01-30T19:08:37;28.25;;;16.00;;
45338;SDS011;31071;51.478;5.710;2024-01-30T19:11:03;27.02;;;15.82;;
45338;SDS011;31071;51.478;5.710;2024-01-30T19:13:29;29.60;;;15.02;;
45338;SDS011;31071;51.478;5.710;2024-01-30T19:15:54;26.38;;;15.18;;
45338;SDS011;31071;51.478;5.710;2024-01-30T19:18:21;26.67;;;15.93;;
45338;SDS011;31071;51.478;5.710;2024-01-30T19:20:47;28.42;;;16.55;;
45338;SDS011;31071;51.478;5.710;2024-01-30T19:23:14;28.13;;;15.52;;
45338;SDS011;31071;51.478;5.710;2024-01-30T19:25:41;28.08;;;15.38;;
45338;SDS011;31071;51.478;5.710;2024-01-30T19:28:09;32.35;;;16.58;;
45338;SDS011;31071;51.478;5.710;2024-01-30T19:30:45;30.13;;;16.80;;
45338;SDS011;31071;51.478;5.710;2024-01-30T19:33:25;33.72;;;18.17;;
45338;SDS011;31071;51.478;5.710;2024-01-30T19:35:54;30.77;;;17.35;;
45338;SDS011;31071;51.478;5.710;2024-01-30T19:38:21;28.90;;;16.67;;
45338;SDS011;31071;51.478;5.710;2024-01-30T19:40:49;30.63;;;17.70;;
45338;SDS011;31071;51.478;5.710;2024-01-30T19:43:17;31.30;;;18.52;;
45338;SDS011;31071;51.478;5.710;2024-01-30T19:45:43;35.92;;;20.10;;
45338;SDS011;31071;51.478;5.710;2024-01-30T19:49:03;35.97;;;19.35;;
45338;SDS011;31071;51.478;5.710;2024-01-30T19:51:12;33.63;;;19.02;;
45338;SDS011;31071;51.478;5.710;2024-01-30T19:53:38;32.20;;;19.45;;
45338;SDS011;31071;51.478;5.710;2024-01-30T19:56:04;34.83;;;19.55;;
45338;SDS011;31071;51.478;5.710;2024-01-30T19:58:30;40.13;;;20.02;;
45338;SDS011;31071;51.478;5.710;2024-01-30T20:00:56;38.97;;;20.02;;
45338;SDS011;31071;51.478;5.710;2024-01-30T20:03:22;32.42;;;19.00;;
45338;SDS011;31071;51.478;5.710;2024-01-30T20:05:48;35.40;;;20.77;;
45338;SDS011;31071;51.478;5.710;2024-01-30T20:08:14;36.72;;;19.42;;
45338;SDS011;31071;51.478;5.710;2024-01-30T20:10:41;36.67;;;20.25;;
45338;SDS011;31071;51.478;5.710;2024-01-30T20:13:07;37.88;;;21.27;;
45338;SDS011;31071;51.478;5.710;2024-01-30T20:15:32;38.28;;;21.52;;
45338;SDS011;31071;51.478;5.710;2024-01-30T20:17:58;36.08;;;21.13;;
45338;SDS011;31071;51.478;5.710;2024-01-30T20:20:24;37.00;;;21.20;;
45338;SDS011;31071;51.478;5.710;2024-01-30T20:22:50;36.67;;;20.63;;
45338;SDS011;31071;51.478;5.710;2024-01-30T20:25:19;41.45;;;22.42;;
45338;SDS011;31071;51.478;5.710;2024-01-30T20:27:45;36.58;;;21.33;;
45338;SDS011;31071;51.478;5.710;2024-01-30T20:30:11;39.05;;;21.80;;
45338;SDS011;31071;51.478;5.710;2024-01-30T20:32:37;39.53;;;20.48;;
45338;SDS011;31071;51.478;5.710;2024-01-30T20:35:06;40.05;;;22.58;;
45338;SDS011;31071;51.478;5.710;2024-01-30T20:37:36;37.88;;;21.52;;
45338;SDS011;31071;51.478;5.710;2024-01-30T20:40:03;39.55;;;21.85;;
45338;SDS011;31071;51.478;5.710;2024-01-30T20:42:30;43.90;;;23.63;;
45338;SDS011;31071;51.478;5.710;2024-01-30T20:44:55;41.55;;;23.23;;
45338;SDS011;31071;51.478;5.710;2024-01-30T20:47:24;37.97;;;22.00;;
45338;SDS011;31071;51.478;5.710;2024-01-30T20:49:50;40.88;;;23.27;;
45338;SDS011;31071;51.478;5.710;2024-01-30T20:52:16;38.08;;;21.58;;
45338;SDS011;31071;51.478;5.710;2024-01-30T20:54:43;38.90;;;22.92;;
45338;SDS011;31071;51.478;5.710;2024-01-30T20:57:09;38.67;;;22.70;;
45338;SDS011;31071;51.478;5.710;2024-01-30T20:59:35;40.20;;;22.88;;
45338;SDS011;31071;51.478;5.710;2024-01-30T21:02:01;37.47;;;21.30;;
45338;SDS011;31071;51.478;5.710;2024-01-30T21:04:27;36.38;;;22.40;;
45338;SDS011;31071;51.478;5.710;2024-01-30T21:07:00;37.88;;;22.85;;
45338;SDS011;31071;51.478;5.710;2024-01-30T21:09:26;40.22;;;22.55;;
45338;SDS011;31071;51.478;5.710;2024-01-30T21:11:52;37.60;;;22.58;;
45338;SDS011;31071;51.478;5.710;2024-01-30T21:14:20;40.22;;;21.77;;
45338;SDS011;31071;51.478;5.710;2024-01-30T21:16:46;40.42;;;22.65;;
45338;SDS011;31071;51.478;5.710;2024-01-30T21:19:12;35.65;;;21.60;;
45338;SDS011;31071;51.478;5.710;2024-01-30T21:21:37;36.35;;;22.13;;
45338;SDS011;31071;51.478;5.710;2024-01-30T21:24:03;36.95;;;20.40;;
45338;SDS011;31071;51.478;5.710;2024-01-30T21:26:55;35.17;;;21.67;;
45338;SDS011;31071;51.478;5.710;2024-01-30T21:29:32;35.13;;;20.65;;
45338;SDS011;31071;51.478;5.710;2024-01-30T21:31:57;37.08;;;22.17;;
45338;SDS011;31071;51.478;5.710;2024-01-30T21:34:23;38.15;;;20.45;;
45338;SDS011;31071;51.478;5.710;2024-01-30T21:36:49;37.92;;;21.20;;
45338;SDS011;31071;51.478;5.710;2024-01-30T21:39:15;37.50;;;22.05;;
45338;SDS011;31071;51.478;5.710;2024-01-30T21:41:40;39.65;;;21.52;;
45338;SDS011;31071;51.478;5.710;2024-01-30T21:44:07;34.30;;;20.95;;
45338;SDS011;31071;51.478;5.710;2024-01-30T21:46:32;37.53;;;21.65;;
45338;SDS011;31071;51.478;5.710;2024-01-30T21:49:01;38.53;;;20.73;;
45338;SDS011;31071;51.478;5.710;2024-01-30T21:51:30;38.03;;;21.05;;
45338;SDS011;31071;51.478;5.710;2024-01-30T21:53:59;37.17;;;20.73;;
45338;SDS011;31071;51.478;5.710;2024-01-30T21:56:41;35.15;;;20.02;;
45338;SDS011;31071;51.478;5.710;2024-01-30T21:59:10;39.70;;;19.67;;
45338;SDS011;31071;51.478;5.710;2024-01-30T22:01:39;36.47;;;20.00;;
45338;SDS011;31071;51.478;5.710;2024-01-30T22:04:05;37.78;;;20.33;;
45338;SDS011;31071;51.478;5.710;2024-01-30T22:06:31;35.15;;;20.23;;
45338;SDS011;31071;51.478;5.710;2024-01-30T22:09:18;41.63;;;22.52;;
45338;SDS011;31071;51.478;5.710;2024-01-30T22:11:43;39.97;;;21.13;;
45338;SDS011;31071;51.478;5.710;2024-01-30T22:14:17;39.58;;;19.30;;
45338;SDS011;31071;51.478;5.710;2024-01-30T22:16:44;39.50;;;20.40;;
45338;SDS011;31071;51.478;5.710;2024-01-30T22:19:09;39.67;;;20.73;;
45338;SDS011;31071;51.478;5.710;2024-01-30T22:21:36;32.47;;;17.08;;
45338;SDS011;31071;51.478;5.710;2024-01-30T22:24:02;37.22;;;17.55;;
45338;SDS011;31071;51.478;5.710;2024-01-30T22:26:28;33.83;;;15.95;;
45338;SDS011;31071;51.478;5.710;2024-01-30T22:28:54;32.67;;;16.25;;
45338;SDS011;31071;51.478;5.710;2024-01-30T22:31:22;30.33;;;14.60;;
45338;SDS011;31071;51.478;5.710;2024-01-30T22:33:48;30.35;;;13.90;;
45338;SDS011;31071;51.478;5.710;2024-01-30T22:36:23;35.53;;;14.75;;
45338;SDS011;31071;51.478;5.710;2024-01-30T22:38:49;29.17;;;13.20;;
45338;SDS011;31071;51.478;5.710;2024-01-30T22:41:20;29.75;;;14.18;;
45338;SDS011;31071;51.478;5.710;2024-01-30T22:43:47;29.80;;;13.77;;
45338;SDS011;31071;51.478;5.710;2024-01-30T22:46:13;32.53;;;14.77;;
45338;SDS011;31071;51.478;5.710;2024-01-30T22:48:42;35.33;;;14.93;;
45338;SDS011;31071;51.478;5.710;2024-01-30T22:51:08;33.47;;;15.73;;
45338;SDS011;31071;51.478;5.710;2024-01-30T22:53:41;32.40;;;14.93;;
45338;SDS011;31071;51.478;5.710;2024-01-30T22:56:06;34.20;;;16.13;;
45338;SDS011;31071;51.478;5.710;2024-01-30T22:58:32;35.92;;;15.88;;
45338;SDS011;31071;51.478;5.710;2024-01-30T23:00:58;30.17;;;14.77;;
45338;SDS011;31071;51.478;5.710;2024-01-30T23:03:24;37.95;;;16.95;;
45338;SDS011;31071;51.478;5.710;2024-01-30T23:05:50;35.75;;;16.95;;
45338;SDS011;31071;51.478;5.710;2024-01-30T23:08:16;34.45;;;17.05;;
45338;SDS011;31071;51.478;5.710;2024-01-30T23:10:41;42.33;;;17.63;;
45338;SDS011;31071;51.478;5.710;2024-01-30T23:13:08;37.28;;;17.38;;
45338;SDS011;31071;51.478;5.710;2024-01-30T23:15:34;38.63;;;18.33;;
45338;SDS011;31071;51.478;5.710;2024-01-30T23:18:00;35.60;;;16.90;;
45338;SDS011;31071;51.478;5.710;2024-01-30T23:20:26;42.58;;;17.98;;
45338;SDS011;31071;51.478;5.710;2024-01-30T23:22:53;39.53;;;16.95;;
45338;SDS011;31071;51.478;5.710;2024-01-30T23:25:19;36.78;;;15.55;;
45338;SDS011;31071;51.478;5.710;2024-01-30T23:27:45;36.50;;;16.90;;
45338;SDS011;31071;51.478;5.710;2024-01-30T23:30:11;41.33;;;17.23;;
45338;SDS011;31071;51.478;5.710;2024-01-30T23:32:37;35.00;;;15.98;;
45338;SDS011;31071;51.478;5.710;2024-01-30T23:35:03;39.22;;;16.20;;
45338;SDS011;31071;51.478;5.710;2024-01-30T23:37:42;39.47;;;16.65;;
45338;SDS011;31071;51.478;5.710;2024-01-30T23:40:13;39.13;;;15.68;;
45338;SDS011;31071;51.478;5.710;2024-01-30T23:42:40;38.45;;;17.45;;
45338;SDS011;31071;51.478;5.710;2024-01-30T23:45:06;36.28;;;14.02;;
45338;SDS011;31071;51.478;5.710;2024-01-30T23:47:38;30.02;;;13.60;;
45338;SDS011;31071;51.478;5.710;2024-01-30T23:50:04;33.17;;;13.98;;
45338;SDS011;31071;51.478;5.710;2024-01-30T23:52:30;31.13;;;13.57;;
45338;SDS011;31071;51.478;5.710;2024-01-30T23:54:58;26.98;;;11.43;;
45338;SDS011;31071;51.478;5.710;2024-01-30T23:57:24;27.83;;;11.20;;
45338;SDS011;31071;51.478;5.710;2024-01-30T23:59:51;23.65;;;10.40;;
